createdAt,value
2023-06-11T00:00:31.082Z,4.93
2023-06-11T00:02:58.675Z,5.30
2023-06-11T00:05:28.881Z,5.32
2023-06-11T00:08:02.169Z,5.55
2023-06-11T00:10:29.605Z,4.65
2023-06-11T00:12:56.484Z,5.25
2023-06-11T00:15:23.539Z,4.82
2023-06-11T00:17:50.659Z,5.55
2023-06-11T00:20:17.700Z,5.47
2023-06-11T00:22:44.724Z,5.30
2023-06-11T00:25:13.022Z,5.80
2023-06-11T00:27:40.445Z,6.00
2023-06-11T00:30:08.073Z,6.20
2023-06-11T00:32:37.021Z,5.55
2023-06-11T00:35:10.783Z,5.10
2023-06-11T00:37:38.416Z,5.78
2023-06-11T00:40:07.467Z,5.57
2023-06-11T00:42:34.971Z,5.32
2023-06-11T00:45:04.958Z,5.70
2023-06-11T00:47:32.895Z,6.05
2023-06-11T00:50:01.582Z,6.35
2023-06-11T00:52:28.813Z,5.88
2023-06-11T00:54:58.638Z,5.93
2023-06-11T00:57:27.340Z,6.20
2023-06-11T00:59:55.414Z,5.50
2023-06-11T01:02:25.494Z,6.03
2023-06-11T01:04:58.934Z,6.25
2023-06-11T01:07:31.497Z,5.60
2023-06-11T01:10:03.070Z,6.38
2023-06-11T01:12:33.323Z,5.70
2023-06-11T01:15:00.795Z,5.93
2023-06-11T01:17:42.264Z,5.70
2023-06-11T01:20:17.773Z,5.50
2023-06-11T01:23:17.711Z,5.57
2023-06-11T01:25:55.949Z,4.95
2023-06-11T01:28:29.786Z,5.30
2023-06-11T01:31:00.432Z,4.50
2023-06-11T01:35:59.477Z,5.85
2023-06-11T01:38:35.892Z,5.95
2023-06-11T01:41:03.681Z,5.63
2023-06-11T01:43:30.919Z,5.38
2023-06-11T01:45:59.890Z,5.28
2023-06-11T01:48:26.996Z,4.80
2023-06-11T01:50:53.988Z,5.63
2023-06-11T01:53:21.989Z,5.47
2023-06-11T01:55:49.156Z,5.20
2023-06-11T01:58:17.960Z,5.60
2023-06-11T02:00:45.061Z,5.10
2023-06-11T02:03:12.597Z,5.97
2023-06-11T02:05:39.680Z,5.10
2023-06-11T02:08:06.603Z,5.40
2023-06-11T02:10:33.728Z,5.47
2023-06-11T02:13:00.608Z,5.55
2023-06-11T02:15:27.553Z,6.13
2023-06-11T02:17:54.536Z,5.30
2023-06-11T02:20:21.634Z,5.95
2023-06-11T02:22:48.742Z,6.47
2023-06-11T02:25:15.850Z,5.68
2023-06-11T02:27:42.831Z,5.90
2023-06-11T02:30:10.216Z,5.63
2023-06-11T02:32:37.265Z,5.60
2023-06-11T02:35:04.686Z,5.70
2023-06-11T02:37:31.602Z,6.22
2023-06-11T02:39:58.684Z,5.60
2023-06-11T02:42:25.651Z,7.00
2023-06-11T02:44:52.743Z,5.72
2023-06-11T02:47:20.012Z,5.85
2023-06-11T02:49:47.014Z,5.43
2023-06-11T02:52:14.242Z,5.70
2023-06-11T02:54:41.336Z,5.85
2023-06-11T02:57:08.349Z,5.30
2023-06-11T02:59:35.724Z,5.93
2023-06-11T03:02:02.651Z,5.32
2023-06-11T03:04:29.571Z,5.95
2023-06-11T03:06:56.623Z,6.70
2023-06-11T03:09:25.455Z,5.97
2023-06-11T03:11:53.130Z,6.18
2023-06-11T03:14:22.241Z,5.85
2023-06-11T03:16:49.285Z,5.75
2023-06-11T03:19:16.420Z,6.05
2023-06-11T03:21:43.556Z,6.05
2023-06-11T03:24:12.105Z,6.63
2023-06-11T03:26:39.101Z,5.85
2023-06-11T03:29:06.323Z,5.78
2023-06-11T03:31:41.751Z,6.82
2023-06-11T03:34:09.176Z,5.80
2023-06-11T03:36:37.433Z,6.07
2023-06-11T03:39:08.872Z,5.80
2023-06-11T03:41:36.226Z,5.90
2023-06-11T03:44:04.016Z,6.45
2023-06-11T03:46:31.840Z,6.30
2023-06-11T03:48:58.966Z,6.35
2023-06-11T03:51:26.045Z,6.25
2023-06-11T03:53:53.554Z,6.03
2023-06-11T03:56:21.082Z,5.88
2023-06-11T03:58:48.385Z,6.63
2023-06-11T04:01:15.737Z,6.20
2023-06-11T04:03:42.798Z,6.18
2023-06-11T04:06:10.367Z,6.25
2023-06-11T04:08:37.357Z,6.10
2023-06-11T04:11:04.865Z,6.05
2023-06-11T04:13:31.982Z,7.13
2023-06-11T04:15:58.990Z,7.07
2023-06-11T04:18:25.938Z,6.97
2023-06-11T04:20:55.599Z,8.13
2023-06-11T04:23:22.953Z,13.00
2023-06-11T04:25:50.352Z,13.18
2023-06-11T04:28:19.272Z,12.02
2023-06-11T04:30:47.459Z,11.52
2023-06-11T04:33:17.023Z,8.52
2023-06-11T04:35:45.745Z,8.20
2023-06-11T04:38:12.678Z,6.88
2023-06-11T04:40:41.416Z,7.20
2023-06-11T04:43:09.965Z,7.22
2023-06-11T04:45:37.530Z,8.15
2023-06-11T04:48:05.595Z,8.00
2023-06-11T04:50:34.153Z,8.05
2023-06-11T04:53:04.463Z,8.23
2023-06-11T04:55:33.540Z,8.27
2023-06-11T04:58:02.929Z,16.65
2023-06-11T05:00:31.352Z,8.70
2023-06-11T05:03:03.574Z,10.73
2023-06-11T05:05:33.340Z,8.55
2023-06-11T05:08:01.173Z,8.13
2023-06-11T05:10:28.865Z,7.95
2023-06-11T05:12:55.843Z,8.90
2023-06-11T05:15:23.210Z,7.70
2023-06-11T05:17:53.247Z,8.13
2023-06-11T05:20:22.229Z,7.47
2023-06-11T05:22:50.789Z,9.02
2023-06-11T05:25:21.494Z,7.93
2023-06-11T05:30:25.485Z,6.63
2023-06-11T05:32:56.642Z,7.32
2023-06-11T05:35:24.449Z,6.70
2023-06-11T05:37:51.590Z,6.78
2023-06-11T05:40:18.909Z,6.47
2023-06-11T05:42:46.185Z,6.40
2023-06-11T05:45:13.539Z,6.57
2023-06-11T05:47:41.178Z,6.80
2023-06-11T05:50:08.964Z,6.85
2023-06-11T05:52:36.390Z,6.35
2023-06-11T05:55:05.582Z,5.65
2023-06-11T05:57:32.624Z,5.72
2023-06-11T06:00:00.261Z,5.53
2023-06-11T06:02:30.038Z,6.07
2023-06-11T06:04:59.465Z,6.22
2023-06-11T06:07:26.818Z,5.88
2023-06-11T06:09:58.003Z,6.30
2023-06-11T06:12:25.583Z,5.57
2023-06-11T06:14:52.595Z,5.35
2023-06-11T06:17:19.764Z,5.43
2023-06-11T06:19:46.660Z,5.40
2023-06-11T06:22:15.169Z,5.22
2023-06-11T06:24:42.341Z,5.75
2023-06-11T06:27:09.311Z,6.13
2023-06-11T06:29:40.111Z,5.10
2023-06-11T06:32:09.227Z,6.03
2023-06-11T06:34:36.825Z,5.60
2023-06-11T06:37:04.303Z,5.78
2023-06-11T06:39:32.757Z,4.97
2023-06-11T06:41:59.877Z,4.90
2023-06-11T06:44:37.986Z,4.88
2023-06-11T06:47:05.595Z,5.15
2023-06-11T06:49:32.682Z,5.72
2023-06-11T06:51:59.598Z,5.20
2023-06-11T06:54:28.371Z,5.57
2023-06-11T06:56:56.185Z,5.85
2023-06-11T06:59:23.465Z,5.78
2023-06-11T07:01:51.049Z,5.63
2023-06-11T07:04:18.150Z,5.03
2023-06-11T07:06:45.611Z,5.25
2023-06-11T07:09:12.783Z,4.90
2023-06-11T07:11:42.109Z,4.85
2023-06-11T07:14:09.265Z,4.85
2023-06-11T07:16:39.760Z,4.80
2023-06-11T07:19:07.641Z,4.70
2023-06-11T07:21:37.223Z,5.00
2023-06-11T07:24:06.209Z,4.35
2023-06-11T07:26:33.684Z,4.93
2023-06-11T07:29:01.433Z,4.43
2023-06-11T07:31:28.799Z,4.95
2023-06-11T07:33:56.495Z,5.20
2023-06-11T07:36:23.544Z,5.32
2023-06-11T07:38:51.034Z,4.90
2023-06-11T07:41:19.163Z,4.63
2023-06-11T07:43:46.441Z,4.10
2023-06-11T07:46:18.659Z,5.68
2023-06-11T07:48:46.446Z,4.63
2023-06-11T07:51:19.192Z,5.35
2023-06-11T07:53:48.845Z,4.90
2023-06-11T07:56:16.000Z,4.60
2023-06-11T07:58:43.110Z,4.75
2023-06-11T08:01:10.248Z,4.93
2023-06-11T08:03:37.536Z,4.45
2023-06-11T08:06:04.827Z,4.10
2023-06-11T08:08:31.845Z,4.63
2023-06-11T08:10:59.251Z,4.72
2023-06-11T08:13:26.361Z,4.03
2023-06-11T08:15:54.265Z,4.63
2023-06-11T08:18:21.670Z,4.55
2023-06-11T08:20:48.964Z,4.78
2023-06-11T08:23:15.956Z,4.10
2023-06-11T08:25:43.439Z,3.78
2023-06-11T08:28:10.689Z,4.28
2023-06-11T08:30:37.638Z,4.03
2023-06-11T08:33:05.304Z,3.63
2023-06-11T08:35:32.346Z,3.70
2023-06-11T08:38:14.081Z,4.43
2023-06-11T08:40:42.812Z,4.00
2023-06-11T08:43:10.336Z,3.50
2023-06-11T08:45:38.040Z,4.15
2023-06-11T08:48:06.514Z,3.33
2023-06-11T08:50:33.520Z,3.58
2023-06-11T08:53:04.665Z,3.33
2023-06-11T08:55:32.167Z,3.38
2023-06-11T08:57:59.612Z,3.30
2023-06-11T09:00:26.534Z,2.83
2023-06-11T09:02:55.126Z,3.30
2023-06-11T09:05:22.643Z,3.10
2023-06-11T09:07:53.800Z,3.10
2023-06-11T09:12:48.918Z,3.17
2023-06-11T09:15:17.270Z,3.17
2023-06-11T09:17:50.318Z,3.58
2023-06-11T09:20:18.210Z,3.15
2023-06-11T09:22:46.756Z,3.28
2023-06-11T09:25:20.632Z,3.42
2023-06-11T09:27:49.001Z,2.83
2023-06-11T09:30:18.437Z,2.92
2023-06-11T09:32:48.152Z,3.30
2023-06-11T09:35:20.176Z,5.80
2023-06-11T09:37:52.172Z,3.55
2023-06-11T09:40:21.807Z,3.20
2023-06-11T09:42:49.795Z,3.53
2023-06-11T09:45:20.645Z,3.00
2023-06-11T09:47:49.060Z,3.08
2023-06-11T09:50:23.309Z,2.83
2023-06-11T09:52:52.534Z,3.03
2023-06-11T09:55:19.760Z,2.35
2023-06-11T09:57:47.349Z,2.80
2023-06-11T10:00:15.122Z,3.47
2023-06-11T10:02:43.791Z,2.15
2023-06-11T10:05:14.180Z,2.30
2023-06-11T10:07:48.560Z,2.72
2023-06-11T10:10:23.046Z,2.55
2023-06-11T10:12:54.438Z,2.60
2023-06-11T10:16:01.017Z,2.40
2023-06-11T10:18:30.977Z,2.55
2023-06-11T10:21:06.557Z,2.33
2023-06-11T10:23:44.435Z,3.05
2023-06-11T10:26:11.756Z,2.63
2023-06-11T10:28:42.922Z,2.30
2023-06-11T10:31:10.065Z,2.75
2023-06-11T10:33:46.296Z,2.10
2023-06-11T10:36:24.053Z,2.45
2023-06-11T10:39:05.077Z,4.00
2023-06-11T10:41:32.325Z,2.50
2023-06-11T10:43:59.501Z,2.50
2023-06-11T10:46:26.839Z,2.67
2023-06-11T10:48:55.767Z,2.45
2023-06-11T10:51:22.998Z,2.85
2023-06-11T10:53:58.375Z,2.47
2023-06-11T10:56:27.491Z,3.20
2023-06-11T10:58:56.420Z,3.83
2023-06-11T11:01:23.800Z,7.60
2023-06-11T11:03:51.953Z,6.00
2023-06-11T11:06:29.515Z,3.60
2023-06-11T11:08:57.682Z,2.60
2023-06-11T11:11:25.629Z,5.47
2023-06-11T11:13:52.697Z,2.50
2023-06-11T11:16:22.875Z,5.00
2023-06-11T11:18:50.386Z,3.03
2023-06-11T11:21:20.135Z,2.63
2023-06-11T11:23:49.392Z,2.60
2023-06-11T11:26:18.795Z,2.13
2023-06-11T11:28:48.539Z,2.72
2023-06-11T11:31:18.923Z,2.47
2023-06-11T11:33:51.443Z,2.40
2023-06-11T11:36:24.045Z,2.95
2023-06-11T11:38:51.767Z,2.40
2023-06-11T11:41:23.866Z,2.63
2023-06-11T11:43:54.803Z,2.50
2023-06-11T11:46:24.888Z,2.58
2023-06-11T11:48:58.857Z,2.78
2023-06-11T11:51:26.813Z,2.67
2023-06-11T11:53:54.030Z,2.95
2023-06-11T11:56:21.157Z,2.95
2023-06-11T11:58:48.162Z,3.50
2023-06-11T12:01:24.056Z,2.83
2023-06-11T12:04:02.684Z,2.95
2023-06-11T12:06:33.027Z,2.90
2023-06-11T12:09:00.178Z,2.90
2023-06-11T12:11:27.234Z,2.50
2023-06-11T12:13:54.652Z,2.53
2023-06-11T12:16:23.895Z,2.28
2023-06-11T12:18:51.116Z,2.50
2023-06-11T12:21:18.326Z,2.17
2023-06-11T12:23:45.555Z,2.22
2023-06-11T12:26:12.597Z,2.00
2023-06-11T12:28:39.753Z,2.65
2023-06-11T12:31:08.004Z,2.25
2023-06-11T12:33:35.879Z,2.38
2023-06-11T12:36:02.915Z,2.10
2023-06-11T12:38:29.917Z,2.20
2023-06-11T12:40:57.249Z,1.92
2023-06-11T12:43:24.331Z,4.00
2023-06-11T12:45:53.768Z,5.20
2023-06-11T12:48:21.066Z,3.88
2023-06-11T12:50:48.296Z,1.88
2023-06-11T12:53:15.640Z,2.40
2023-06-11T12:55:42.786Z,2.13
2023-06-11T12:58:09.814Z,1.67
2023-06-11T13:00:37.086Z,1.58
2023-06-11T13:03:07.847Z,1.77
2023-06-11T13:05:34.833Z,1.70
2023-06-11T13:08:02.181Z,1.60
2023-06-11T13:10:29.449Z,1.80
2023-06-11T13:12:58.191Z,1.75
2023-06-11T13:15:25.854Z,1.23
2023-06-11T13:17:53.145Z,1.88
2023-06-11T13:20:22.353Z,1.55
2023-06-11T13:22:50.113Z,1.70
2023-06-11T13:25:17.689Z,1.40
2023-06-11T13:27:44.814Z,2.03
2023-06-11T13:30:12.802Z,1.70
2023-06-11T13:32:40.626Z,1.60
2023-06-11T13:35:08.194Z,1.90
2023-06-11T13:37:35.635Z,1.75
2023-06-11T13:40:02.862Z,1.70
2023-06-11T13:42:30.300Z,1.63
2023-06-11T13:44:57.200Z,1.98
2023-06-11T13:47:24.691Z,2.10
2023-06-11T13:49:52.056Z,1.75
2023-06-11T13:52:19.695Z,1.60
2023-06-11T13:54:46.970Z,2.05
2023-06-11T13:57:14.377Z,2.15
2023-06-11T13:59:44.550Z,1.98
2023-06-11T14:02:11.584Z,1.95
2023-06-11T14:04:38.485Z,2.45
2023-06-11T14:07:05.446Z,2.28
2023-06-11T14:09:32.623Z,2.30
2023-06-11T14:11:59.720Z,2.65
2023-06-11T14:14:31.070Z,1.95
2023-06-11T14:17:01.010Z,2.53
2023-06-11T14:19:29.235Z,2.38
2023-06-11T14:21:56.246Z,2.85
2023-06-11T14:24:24.949Z,2.58
2023-06-11T14:26:52.527Z,2.17
2023-06-11T14:29:19.759Z,2.55
2023-06-11T14:31:46.755Z,2.47
2023-06-11T14:34:13.629Z,2.20
2023-06-11T14:36:41.148Z,2.33
2023-06-11T14:39:08.352Z,2.25
2023-06-11T14:41:35.438Z,2.10
2023-06-11T14:44:02.525Z,2.13
2023-06-11T14:46:29.756Z,1.98
2023-06-11T14:48:56.811Z,2.15
2023-06-11T14:51:24.449Z,1.85
2023-06-11T14:53:51.482Z,1.90
2023-06-11T14:56:18.804Z,1.92
2023-06-11T14:58:46.168Z,2.08
2023-06-11T15:01:14.639Z,1.90
2023-06-11T15:03:41.674Z,2.05
2023-06-11T15:06:08.885Z,3.28
2023-06-11T15:08:36.112Z,3.58
2023-06-11T15:11:03.219Z,2.00
2023-06-11T15:13:30.220Z,1.88
2023-06-11T15:15:57.330Z,2.30
2023-06-11T15:18:24.607Z,1.80
2023-06-11T15:20:51.829Z,1.80
2023-06-11T15:23:20.513Z,1.77
2023-06-11T15:25:49.544Z,1.83
2023-06-11T15:28:20.625Z,2.10
2023-06-11T15:33:25.256Z,1.98
2023-06-11T15:35:55.083Z,1.92
2023-06-11T15:38:28.400Z,2.17
2023-06-11T15:40:55.679Z,2.05
2023-06-11T15:43:22.940Z,1.90
2023-06-11T15:45:50.839Z,2.30
2023-06-11T15:48:17.982Z,2.10
2023-06-11T15:50:45.044Z,2.08
2023-06-11T15:53:12.030Z,1.88
2023-06-11T15:55:41.553Z,2.28
2023-06-11T15:58:09.207Z,2.60
2023-06-11T16:00:36.559Z,1.60
2023-06-11T16:03:03.801Z,1.92
2023-06-11T16:05:30.984Z,2.03
2023-06-11T16:07:57.901Z,1.92
2023-06-11T16:10:25.009Z,1.90
2023-06-11T16:12:51.993Z,2.58
2023-06-11T16:15:19.087Z,3.40
2023-06-11T16:17:48.013Z,3.40
2023-06-11T16:20:15.455Z,2.05
2023-06-11T16:22:43.017Z,2.13
2023-06-11T16:25:10.430Z,2.17
2023-06-11T16:27:37.738Z,1.70
2023-06-11T16:30:05.166Z,1.88
2023-06-11T16:32:32.304Z,1.98
2023-06-11T16:34:59.473Z,2.33
2023-06-11T16:37:27.159Z,1.90
2023-06-11T16:39:54.126Z,2.33
2023-06-11T16:42:33.692Z,1.85
2023-06-11T16:45:00.805Z,1.95
2023-06-11T16:47:27.867Z,2.25
2023-06-11T16:49:59.945Z,2.50
2023-06-11T16:52:29.028Z,2.17
2023-06-11T16:54:58.731Z,4.50
2023-06-11T16:57:25.670Z,5.18
2023-06-11T16:59:52.707Z,4.78
2023-06-11T17:02:20.557Z,3.20
2023-06-11T17:04:48.209Z,3.20
2023-06-11T17:07:15.297Z,2.22
2023-06-11T17:09:43.768Z,2.10
2023-06-11T17:12:13.867Z,2.20
2023-06-11T17:14:41.597Z,1.95
2023-06-11T17:17:08.811Z,2.63
2023-06-11T17:19:36.202Z,2.30
2023-06-11T17:22:03.184Z,1.95
2023-06-11T17:24:30.695Z,2.33
2023-06-11T17:26:57.768Z,1.80
2023-06-11T17:29:24.797Z,1.70
2023-06-11T17:31:51.867Z,1.83
2023-06-11T17:34:18.999Z,2.30
2023-06-11T17:36:46.207Z,2.15
2023-06-11T17:39:13.168Z,2.20
2023-06-11T17:41:40.367Z,3.08
2023-06-11T17:44:07.404Z,3.53
2023-06-11T17:46:34.404Z,2.72
2023-06-11T17:49:02.111Z,3.08
2023-06-11T17:51:29.216Z,2.88
2023-06-11T17:53:56.416Z,3.28
2023-06-11T17:56:23.583Z,3.97
2023-06-11T17:58:50.683Z,2.88
2023-06-11T18:01:18.541Z,3.72
2023-06-11T18:03:47.179Z,2.97
2023-06-11T18:06:16.199Z,3.00
2023-06-11T18:08:44.896Z,3.60
2023-06-11T18:11:11.774Z,3.47
2023-06-11T18:13:39.869Z,3.15
2023-06-11T18:16:06.984Z,3.50
2023-06-11T18:18:33.863Z,3.50
2023-06-11T18:21:01.141Z,4.15
2023-06-11T18:23:28.344Z,4.97
2023-06-11T18:25:55.652Z,4.75
2023-06-11T18:28:25.609Z,4.07
2023-06-11T18:30:54.579Z,4.22
2023-06-11T18:33:21.663Z,3.70
2023-06-11T18:35:48.559Z,2.97
2023-06-11T18:38:15.852Z,3.17
2023-06-11T18:40:42.929Z,3.30
2023-06-11T18:43:09.989Z,4.20
2023-06-11T18:45:37.103Z,4.90
2023-06-11T18:48:04.531Z,4.05
2023-06-11T18:50:31.620Z,4.53
2023-06-11T18:52:58.658Z,5.10
2023-06-11T18:55:27.073Z,4.40
2023-06-11T18:57:54.008Z,5.13
2023-06-11T19:00:21.417Z,5.00
2023-06-11T19:02:48.892Z,5.28
2023-06-11T19:05:16.509Z,5.57
2023-06-11T19:07:43.725Z,5.47
2023-06-11T19:10:14.331Z,6.82
2023-06-11T19:12:42.666Z,13.57
2023-06-11T19:15:10.118Z,12.93
2023-06-11T19:17:37.448Z,8.52
2023-06-11T19:20:04.897Z,6.95
2023-06-11T19:22:31.905Z,5.60
2023-06-11T19:25:02.133Z,5.22
2023-06-11T19:27:29.793Z,5.80
2023-06-11T19:30:02.609Z,5.88
2023-06-11T19:32:54.643Z,6.07
2023-06-11T19:35:22.284Z,5.50
2023-06-11T19:37:49.710Z,4.88
2023-06-11T19:40:16.688Z,5.80
2023-06-11T19:42:43.875Z,4.65
2023-06-11T19:45:15.390Z,6.03
2023-06-11T19:47:44.850Z,5.95
2023-06-11T19:50:12.567Z,6.75
2023-06-11T19:52:47.193Z,6.72
2023-06-11T19:55:18.505Z,6.78
2023-06-11T20:00:18.958Z,6.93
2023-06-11T20:02:46.249Z,7.32
2023-06-11T20:05:13.504Z,5.53
2023-06-11T20:07:52.223Z,5.85
2023-06-11T20:10:19.198Z,6.50
2023-06-11T20:12:56.004Z,5.53
2023-06-11T20:15:33.441Z,5.38
2023-06-11T20:18:00.683Z,5.97
2023-06-11T20:20:27.665Z,5.78
2023-06-11T20:22:54.612Z,5.07
2023-06-11T20:25:22.144Z,4.82
2023-06-11T20:27:50.322Z,4.15
2023-06-11T20:30:17.699Z,5.88
2023-06-11T20:32:44.737Z,6.50
2023-06-11T20:35:14.939Z,5.10
2023-06-11T20:37:41.904Z,5.15
2023-06-11T20:40:09.663Z,6.80
2023-06-11T20:42:37.597Z,5.95
2023-06-11T20:45:05.038Z,6.45
2023-06-11T20:47:32.315Z,5.88
2023-06-11T20:49:59.547Z,5.68
2023-06-11T20:52:27.572Z,6.00
2023-06-11T20:54:54.693Z,4.95
2023-06-11T20:57:21.883Z,5.22
2023-06-11T20:59:48.924Z,5.30
2023-06-11T21:02:16.080Z,5.65
2023-06-11T21:04:43.090Z,5.28
2023-06-11T21:07:10.221Z,5.43
2023-06-11T21:09:37.229Z,5.90
2023-06-11T21:12:04.587Z,6.22
2023-06-11T21:14:31.877Z,7.20
2023-06-11T21:16:58.756Z,7.00
2023-06-11T21:19:25.956Z,7.78
2023-06-11T21:21:52.976Z,8.00
2023-06-11T21:24:20.547Z,6.47
2023-06-11T21:26:47.592Z,7.25
2023-06-11T21:29:14.831Z,7.35
2023-06-11T21:31:43.626Z,7.40
2023-06-11T21:34:10.752Z,6.97
2023-06-11T21:36:37.860Z,6.70
2023-06-11T21:39:05.098Z,5.85
2023-06-11T21:41:32.064Z,5.07
2023-06-11T21:43:59.255Z,6.93
2023-06-11T21:46:26.436Z,5.20
2023-06-11T21:48:53.752Z,5.50
2023-06-11T21:51:22.132Z,5.40
2023-06-11T21:53:48.998Z,5.22
2023-06-11T21:56:16.097Z,5.35
2023-06-11T21:58:43.145Z,5.53
2023-06-11T22:01:10.357Z,4.43
2023-06-11T22:03:37.560Z,5.85
2023-06-11T22:06:04.885Z,4.75
2023-06-11T22:08:32.095Z,5.18
2023-06-11T22:10:59.185Z,5.25
2023-06-11T22:13:26.159Z,5.15
2023-06-11T22:15:53.230Z,5.03
2023-06-11T22:18:22.852Z,3.92
2023-06-11T22:20:50.153Z,5.70
2023-06-11T22:23:17.349Z,4.88
2023-06-11T22:25:44.319Z,5.00
2023-06-11T22:28:11.512Z,5.20
2023-06-11T22:30:52.855Z,4.63
2023-06-11T22:33:23.664Z,4.88
2023-06-11T22:35:53.514Z,4.88
2023-06-11T22:38:20.629Z,4.47
2023-06-11T22:40:47.610Z,4.35
2023-06-11T22:43:14.644Z,4.20
2023-06-11T22:45:41.549Z,4.53
2023-06-11T22:48:08.758Z,3.90
2023-06-11T22:50:36.306Z,4.70
2023-06-11T22:53:03.612Z,4.07
2023-06-11T22:55:30.711Z,4.38
2023-06-11T22:57:57.633Z,5.82
2023-06-11T23:00:24.982Z,5.38
2023-06-11T23:02:52.770Z,5.30
2023-06-11T23:05:20.001Z,4.90
2023-06-11T23:07:47.675Z,5.40
2023-06-11T23:10:20.120Z,5.32
2023-06-11T23:12:47.572Z,5.25
2023-06-11T23:15:14.714Z,5.70
2023-06-11T23:17:42.578Z,6.03
2023-06-11T23:20:10.678Z,8.05
2023-06-11T23:22:38.415Z,12.25
2023-06-11T23:25:05.956Z,11.43
2023-06-11T23:27:34.948Z,12.90
2023-06-11T23:30:03.660Z,10.80
2023-06-11T23:32:31.329Z,8.70
2023-06-11T23:35:01.246Z,8.48
2023-06-11T23:37:29.406Z,6.47
2023-06-11T23:39:56.645Z,6.20
2023-06-11T23:42:23.762Z,6.18
2023-06-11T23:44:51.304Z,7.05
2023-06-11T23:47:18.367Z,7.80
2023-06-11T23:49:45.339Z,7.40
2023-06-11T23:52:12.269Z,7.40
2023-06-11T23:54:39.248Z,6.70
2023-06-11T23:57:06.465Z,6.95
2023-06-11T23:59:33.577Z,7.20
